sensor_id;sensor_type;location;lat;lon;timestamp;P1;durP1;ratioP1;P2;durP2;ratioP2
33403;SDS011;19751;40.274;18.268;2023-09-19T00:00:41;7.55;;;5.85;;
33403;SDS011;19751;40.274;18.268;2023-09-19T00:03:09;7.70;;;6.32;;
33403;SDS011;19751;40.274;18.268;2023-09-19T00:05:37;8.52;;;6.13;;
33403;SDS011;19751;40.274;18.268;2023-09-19T00:08:09;8.43;;;6.32;;
33403;SDS011;19751;40.274;18.268;2023-09-19T00:10:35;7.80;;;6.72;;
33403;SDS011;19751;40.274;18.268;2023-09-19T00:13:01;9.50;;;5.78;;
33403;SDS011;19751;40.274;18.268;2023-09-19T00:15:30;8.38;;;5.95;;
33403;SDS011;19751;40.274;18.268;2023-09-19T00:18:01;8.55;;;7.25;;
33403;SDS011;19751;40.274;18.268;2023-09-19T00:20:26;9.65;;;6.53;;
33403;SDS011;19751;40.274;18.268;2023-09-19T00:22:54;11.07;;;6.03;;
33403;SDS011;19751;40.274;18.268;2023-09-19T00:25:20;6.88;;;5.60;;
33403;SDS011;19751;40.274;18.268;2023-09-19T00:27:46;11.50;;;6.72;;
33403;SDS011;19751;40.274;18.268;2023-09-19T00:30:16;8.57;;;5.97;;
33403;SDS011;19751;40.274;18.268;2023-09-19T00:32:49;8.05;;;5.57;;
33403;SDS011;19751;40.274;18.268;2023-09-19T00:35:19;8.75;;;6.25;;
33403;SDS011;19751;40.274;18.268;2023-09-19T00:37:45;9.55;;;6.80;;
33403;SDS011;19751;40.274;18.268;2023-09-19T00:40:11;8.85;;;6.38;;
33403;SDS011;19751;40.274;18.268;2023-09-19T00:42:40;11.05;;;6.05;;
33403;SDS011;19751;40.274;18.268;2023-09-19T00:45:08;9.63;;;5.90;;
33403;SDS011;19751;40.274;18.268;2023-09-19T00:47:36;8.15;;;6.57;;
33403;SDS011;19751;40.274;18.268;2023-09-19T00:50:04;8.25;;;6.15;;
33403;SDS011;19751;40.274;18.268;2023-09-19T00:52:33;10.00;;;6.65;;
33403;SDS011;19751;40.274;18.268;2023-09-19T00:55:01;10.50;;;6.32;;
33403;SDS011;19751;40.274;18.268;2023-09-19T00:57:28;8.20;;;6.13;;
33403;SDS011;19751;40.274;18.268;2023-09-19T00:59:54;10.68;;;7.18;;
33403;SDS011;19751;40.274;18.268;2023-09-19T01:02:21;7.03;;;6.30;;
33403;SDS011;19751;40.274;18.268;2023-09-19T01:04:47;8.88;;;6.10;;
33403;SDS011;19751;40.274;18.268;2023-09-19T01:07:13;11.00;;;6.57;;
33403;SDS011;19751;40.274;18.268;2023-09-19T01:09:43;7.32;;;6.28;;
33403;SDS011;19751;40.274;18.268;2023-09-19T01:12:09;8.88;;;6.00;;
33403;SDS011;19751;40.274;18.268;2023-09-19T01:17:38;13.35;;;6.40;;
33403;SDS011;19751;40.274;18.268;2023-09-19T01:20:23;9.73;;;6.77;;
33403;SDS011;19751;40.274;18.268;2023-09-19T01:23:10;8.93;;;6.18;;
33403;SDS011;19751;40.274;18.268;2023-09-19T01:31:03;11.63;;;6.93;;
33403;SDS011;19751;40.274;18.268;2023-09-19T01:36:24;8.95;;;4.97;;
33403;SDS011;19751;40.274;18.268;2023-09-19T01:38:54;9.07;;;5.28;;
33403;SDS011;19751;40.274;18.268;2023-09-19T01:41:29;7.38;;;6.03;;
33403;SDS011;19751;40.274;18.268;2023-09-19T01:44:06;9.27;;;6.47;;
33403;SDS011;19751;40.274;18.268;2023-09-19T01:46:39;9.48;;;5.10;;
33403;SDS011;19751;40.274;18.268;2023-09-19T01:49:25;8.88;;;5.47;;
33403;SDS011;19751;40.274;18.268;2023-09-19T01:54:36;6.97;;;5.28;;
33403;SDS011;19751;40.274;18.268;2023-09-19T01:57:14;7.45;;;5.50;;
33403;SDS011;19751;40.274;18.268;2023-09-19T01:59:48;8.25;;;5.57;;
33403;SDS011;19751;40.274;18.268;2023-09-19T02:02:19;9.53;;;5.57;;
33403;SDS011;19751;40.274;18.268;2023-09-19T02:04:48;6.10;;;5.55;;
33403;SDS011;19751;40.274;18.268;2023-09-19T02:07:15;6.43;;;5.43;;
33403;SDS011;19751;40.274;18.268;2023-09-19T02:09:41;11.57;;;6.40;;
33403;SDS011;19751;40.274;18.268;2023-09-19T02:12:08;7.70;;;5.28;;
33403;SDS011;19751;40.274;18.268;2023-09-19T02:14:34;17.00;;;5.82;;
33403;SDS011;19751;40.274;18.268;2023-09-19T02:17:01;7.95;;;5.57;;
33403;SDS011;19751;40.274;18.268;2023-09-19T02:19:32;12.00;;;6.50;;
33403;SDS011;19751;40.274;18.268;2023-09-19T02:21:59;12.52;;;6.07;;
33403;SDS011;19751;40.274;18.268;2023-09-19T02:24:25;8.35;;;5.07;;
33403;SDS011;19751;40.274;18.268;2023-09-19T02:26:51;7.28;;;4.85;;
33403;SDS011;19751;40.274;18.268;2023-09-19T02:29:17;6.57;;;4.68;;
33403;SDS011;19751;40.274;18.268;2023-09-19T02:31:43;6.57;;;5.18;;
33403;SDS011;19751;40.274;18.268;2023-09-19T02:34:08;7.45;;;5.70;;
33403;SDS011;19751;40.274;18.268;2023-09-19T02:36:35;10.93;;;5.57;;
33403;SDS011;19751;40.274;18.268;2023-09-19T02:39:01;7.57;;;5.00;;
33403;SDS011;19751;40.274;18.268;2023-09-19T02:41:26;7.68;;;5.55;;
33403;SDS011;19751;40.274;18.268;2023-09-19T02:43:54;9.27;;;5.85;;
33403;SDS011;19751;40.274;18.268;2023-09-19T02:46:20;5.63;;;4.80;;
33403;SDS011;19751;40.274;18.268;2023-09-19T02:48:45;7.20;;;4.88;;
33403;SDS011;19751;40.274;18.268;2023-09-19T02:51:11;7.28;;;5.22;;
33403;SDS011;19751;40.274;18.268;2023-09-19T02:53:36;7.85;;;5.05;;
33403;SDS011;19751;40.274;18.268;2023-09-19T02:56:02;7.88;;;4.85;;
33403;SDS011;19751;40.274;18.268;2023-09-19T02:58:29;9.80;;;5.25;;
33403;SDS011;19751;40.274;18.268;2023-09-19T03:00:55;7.20;;;5.00;;
33403;SDS011;19751;40.274;18.268;2023-09-19T03:03:22;8.45;;;5.43;;
33403;SDS011;19751;40.274;18.268;2023-09-19T03:05:48;7.85;;;4.88;;
33403;SDS011;19751;40.274;18.268;2023-09-19T03:08:14;8.15;;;5.55;;
33403;SDS011;19751;40.274;18.268;2023-09-19T03:10:44;9.65;;;5.40;;
33403;SDS011;19751;40.274;18.268;2023-09-19T03:13:12;7.80;;;5.70;;
33403;SDS011;19751;40.274;18.268;2023-09-19T03:15:40;7.57;;;5.72;;
33403;SDS011;19751;40.274;18.268;2023-09-19T03:18:08;10.77;;;4.78;;
33403;SDS011;19751;40.274;18.268;2023-09-19T03:20:34;8.77;;;5.10;;
33403;SDS011;19751;40.274;18.268;2023-09-19T03:22:59;10.73;;;5.60;;
33403;SDS011;19751;40.274;18.268;2023-09-19T03:25:25;9.75;;;4.97;;
33403;SDS011;19751;40.274;18.268;2023-09-19T03:27:51;6.63;;;5.20;;
33403;SDS011;19751;40.274;18.268;2023-09-19T03:30:16;9.63;;;6.00;;
33403;SDS011;19751;40.274;18.268;2023-09-19T03:32:45;11.90;;;5.53;;
33403;SDS011;19751;40.274;18.268;2023-09-19T03:35:12;8.50;;;5.90;;
33403;SDS011;19751;40.274;18.268;2023-09-19T03:37:39;7.05;;;5.65;;
33403;SDS011;19751;40.274;18.268;2023-09-19T03:40:06;6.68;;;5.45;;
33403;SDS011;19751;40.274;18.268;2023-09-19T03:42:33;7.22;;;4.78;;
33403;SDS011;19751;40.274;18.268;2023-09-19T03:45:01;8.35;;;5.07;;
33403;SDS011;19751;40.274;18.268;2023-09-19T03:47:30;7.78;;;5.47;;
33403;SDS011;19751;40.274;18.268;2023-09-19T03:49:56;6.55;;;5.78;;
33403;SDS011;19751;40.274;18.268;2023-09-19T03:52:21;11.18;;;5.05;;
33403;SDS011;19751;40.274;18.268;2023-09-19T03:54:47;7.47;;;5.63;;
33403;SDS011;19751;40.274;18.268;2023-09-19T03:57:12;8.10;;;5.10;;
33403;SDS011;19751;40.274;18.268;2023-09-19T03:59:41;11.43;;;5.90;;
33403;SDS011;19751;40.274;18.268;2023-09-19T04:02:08;12.77;;;6.38;;
33403;SDS011;19751;40.274;18.268;2023-09-19T04:04:37;8.18;;;5.57;;
33403;SDS011;19751;40.274;18.268;2023-09-19T04:07:03;9.52;;;5.43;;
33403;SDS011;19751;40.274;18.268;2023-09-19T04:09:28;9.27;;;6.25;;
33403;SDS011;19751;40.274;18.268;2023-09-19T04:11:54;11.43;;;5.47;;
33403;SDS011;19751;40.274;18.268;2023-09-19T04:14:19;6.95;;;5.38;;
33403;SDS011;19751;40.274;18.268;2023-09-19T04:16:45;12.93;;;6.50;;
33403;SDS011;19751;40.274;18.268;2023-09-19T04:19:10;7.82;;;5.75;;
33403;SDS011;19751;40.274;18.268;2023-09-19T04:21:36;7.65;;;5.70;;
33403;SDS011;19751;40.274;18.268;2023-09-19T04:24:01;9.60;;;6.38;;
33403;SDS011;19751;40.274;18.268;2023-09-19T04:26:27;8.18;;;5.95;;
33403;SDS011;19751;40.274;18.268;2023-09-19T04:28:52;7.70;;;5.80;;
33403;SDS011;19751;40.274;18.268;2023-09-19T04:31:17;11.73;;;6.20;;
33403;SDS011;19751;40.274;18.268;2023-09-19T04:33:44;7.90;;;5.38;;
33403;SDS011;19751;40.274;18.268;2023-09-19T04:36:10;10.85;;;5.97;;
33403;SDS011;19751;40.274;18.268;2023-09-19T04:38:35;9.15;;;6.30;;
33403;SDS011;19751;40.274;18.268;2023-09-19T04:41:01;6.43;;;5.18;;
33403;SDS011;19751;40.274;18.268;2023-09-19T04:43:27;7.38;;;5.32;;
33403;SDS011;19751;40.274;18.268;2023-09-19T04:45:53;7.78;;;5.85;;
33403;SDS011;19751;40.274;18.268;2023-09-19T04:48:21;9.52;;;6.43;;
33403;SDS011;19751;40.274;18.268;2023-09-19T04:50:49;7.18;;;6.20;;
33403;SDS011;19751;40.274;18.268;2023-09-19T04:53:14;12.35;;;5.97;;
33403;SDS011;19751;40.274;18.268;2023-09-19T04:55:40;9.40;;;6.35;;
33403;SDS011;19751;40.274;18.268;2023-09-19T04:58:05;9.02;;;5.35;;
33403;SDS011;19751;40.274;18.268;2023-09-19T05:00:31;9.02;;;6.22;;
33403;SDS011;19751;40.274;18.268;2023-09-19T05:03:00;9.18;;;6.20;;
33403;SDS011;19751;40.274;18.268;2023-09-19T05:05:26;8.68;;;5.55;;
33403;SDS011;19751;40.274;18.268;2023-09-19T05:07:51;8.27;;;5.50;;
33403;SDS011;19751;40.274;18.268;2023-09-19T05:10:19;9.23;;;5.70;;
33403;SDS011;19751;40.274;18.268;2023-09-19T05:12:45;8.52;;;7.18;;
33403;SDS011;19751;40.274;18.268;2023-09-19T05:15:12;12.07;;;5.65;;
33403;SDS011;19751;40.274;18.268;2023-09-19T05:17:39;7.68;;;5.20;;
33403;SDS011;19751;40.274;18.268;2023-09-19T05:20:05;12.60;;;5.68;;
33403;SDS011;19751;40.274;18.268;2023-09-19T05:22:41;10.57;;;5.57;;
33403;SDS011;19751;40.274;18.268;2023-09-19T05:25:08;12.60;;;5.60;;
33403;SDS011;19751;40.274;18.268;2023-09-19T05:27:35;8.93;;;5.57;;
33403;SDS011;19751;40.274;18.268;2023-09-19T05:30:00;14.10;;;6.25;;
33403;SDS011;19751;40.274;18.268;2023-09-19T05:32:26;11.45;;;6.00;;
33403;SDS011;19751;40.274;18.268;2023-09-19T05:34:51;16.75;;;6.30;;
33403;SDS011;19751;40.274;18.268;2023-09-19T05:37:18;7.57;;;5.25;;
33403;SDS011;19751;40.274;18.268;2023-09-19T05:39:44;8.15;;;5.72;;
33403;SDS011;19751;40.274;18.268;2023-09-19T05:42:10;9.57;;;6.22;;
33403;SDS011;19751;40.274;18.268;2023-09-19T05:44:35;12.35;;;7.00;;
33403;SDS011;19751;40.274;18.268;2023-09-19T05:47:01;10.77;;;5.93;;
33403;SDS011;19751;40.274;18.268;2023-09-19T05:49:28;8.07;;;5.35;;
33403;SDS011;19751;40.274;18.268;2023-09-19T05:51:53;9.40;;;5.22;;
33403;SDS011;19751;40.274;18.268;2023-09-19T05:54:20;10.35;;;5.80;;
33403;SDS011;19751;40.274;18.268;2023-09-19T05:56:46;9.35;;;6.10;;
33403;SDS011;19751;40.274;18.268;2023-09-19T05:59:12;10.75;;;6.18;;
33403;SDS011;19751;40.274;18.268;2023-09-19T06:01:40;7.15;;;5.10;;
33403;SDS011;19751;40.274;18.268;2023-09-19T06:04:07;15.30;;;7.03;;
33403;SDS011;19751;40.274;18.268;2023-09-19T06:06:33;12.18;;;7.25;;
33403;SDS011;19751;40.274;18.268;2023-09-19T06:09:04;14.85;;;7.25;;
33403;SDS011;19751;40.274;18.268;2023-09-19T06:11:31;10.88;;;7.03;;
33403;SDS011;19751;40.274;18.268;2023-09-19T06:13:59;9.13;;;7.15;;
33403;SDS011;19751;40.274;18.268;2023-09-19T06:16:27;11.90;;;8.85;;
33403;SDS011;19751;40.274;18.268;2023-09-19T06:18:54;15.73;;;10.88;;
33403;SDS011;19751;40.274;18.268;2023-09-19T06:21:23;25.92;;;18.00;;
33403;SDS011;19751;40.274;18.268;2023-09-19T06:23:49;44.33;;;28.08;;
33403;SDS011;19751;40.274;18.268;2023-09-19T06:26:14;41.47;;;25.67;;
33403;SDS011;19751;40.274;18.268;2023-09-19T06:28:40;38.72;;;19.80;;
33403;SDS011;19751;40.274;18.268;2023-09-19T06:31:06;28.85;;;16.42;;
33403;SDS011;19751;40.274;18.268;2023-09-19T06:33:35;27.17;;;15.18;;
33403;SDS011;19751;40.274;18.268;2023-09-19T06:36:04;22.73;;;10.25;;
33403;SDS011;19751;40.274;18.268;2023-09-19T06:38:33;18.90;;;10.85;;
33403;SDS011;19751;40.274;18.268;2023-09-19T06:41:01;15.88;;;8.15;;
33403;SDS011;19751;40.274;18.268;2023-09-19T06:43:30;15.15;;;7.53;;
33403;SDS011;19751;40.274;18.268;2023-09-19T06:45:56;16.65;;;6.78;;
33403;SDS011;19751;40.274;18.268;2023-09-19T06:48:22;8.75;;;5.63;;
33403;SDS011;19751;40.274;18.268;2023-09-19T06:50:50;19.00;;;5.38;;
33403;SDS011;19751;40.274;18.268;2023-09-19T06:53:16;17.70;;;5.78;;
33403;SDS011;19751;40.274;18.268;2023-09-19T06:55:42;18.77;;;4.90;;
33403;SDS011;19751;40.274;18.268;2023-09-19T06:58:09;22.95;;;5.22;;
33403;SDS011;19751;40.274;18.268;2023-09-19T07:00:35;18.48;;;5.25;;
33403;SDS011;19751;40.274;18.268;2023-09-19T07:05:30;19.75;;;5.88;;
33403;SDS011;19751;40.274;18.268;2023-09-19T07:07:57;18.27;;;5.13;;
33403;SDS011;19751;40.274;18.268;2023-09-19T07:10:24;23.33;;;5.93;;
33403;SDS011;19751;40.274;18.268;2023-09-19T07:12:58;24.17;;;5.57;;
33403;SDS011;19751;40.274;18.268;2023-09-19T07:15:25;27.10;;;6.05;;
33403;SDS011;19751;40.274;18.268;2023-09-19T07:17:52;20.75;;;5.75;;
33403;SDS011;19751;40.274;18.268;2023-09-19T07:20:21;38.85;;;6.47;;
33403;SDS011;19751;40.274;18.268;2023-09-19T07:22:48;18.67;;;5.88;;
33403;SDS011;19751;40.274;18.268;2023-09-19T07:25:15;10.98;;;4.75;;
33403;SDS011;19751;40.274;18.268;2023-09-19T07:27:41;15.98;;;4.53;;
33403;SDS011;19751;40.274;18.268;2023-09-19T07:30:07;20.55;;;5.47;;
33403;SDS011;19751;40.274;18.268;2023-09-19T07:32:34;22.05;;;5.40;;
33403;SDS011;19751;40.274;18.268;2023-09-19T07:35:03;21.00;;;4.93;;
33403;SDS011;19751;40.274;18.268;2023-09-19T07:37:30;24.25;;;5.38;;
33403;SDS011;19751;40.274;18.268;2023-09-19T07:39:58;32.53;;;6.75;;
33403;SDS011;19751;40.274;18.268;2023-09-19T07:42:24;32.90;;;6.63;;
33403;SDS011;19751;40.274;18.268;2023-09-19T07:44:50;24.40;;;5.53;;
33403;SDS011;19751;40.274;18.268;2023-09-19T07:47:16;15.32;;;4.20;;
33403;SDS011;19751;40.274;18.268;2023-09-19T07:49:42;15.98;;;4.05;;
33403;SDS011;19751;40.274;18.268;2023-09-19T07:52:08;16.88;;;4.43;;
33403;SDS011;19751;40.274;18.268;2023-09-19T07:54:35;19.95;;;5.40;;
33403;SDS011;19751;40.274;18.268;2023-09-19T07:57:02;25.33;;;4.50;;
33403;SDS011;19751;40.274;18.268;2023-09-19T07:59:28;24.27;;;5.50;;
33403;SDS011;19751;40.274;18.268;2023-09-19T08:01:53;10.50;;;3.92;;
33403;SDS011;19751;40.274;18.268;2023-09-19T08:04:19;17.20;;;3.33;;
33403;SDS011;19751;40.274;18.268;2023-09-19T08:06:44;19.20;;;4.28;;
33403;SDS011;19751;40.274;18.268;2023-09-19T08:09:10;13.27;;;3.88;;
33403;SDS011;19751;40.274;18.268;2023-09-19T08:11:37;15.88;;;4.43;;
33403;SDS011;19751;40.274;18.268;2023-09-19T08:14:04;12.68;;;3.85;;
33403;SDS011;19751;40.274;18.268;2023-09-19T08:16:31;14.20;;;3.75;;
33403;SDS011;19751;40.274;18.268;2023-09-19T08:18:56;22.80;;;5.20;;
33403;SDS011;19751;40.274;18.268;2023-09-19T08:21:22;13.07;;;4.47;;
33403;SDS011;19751;40.274;18.268;2023-09-19T08:23:49;23.40;;;4.60;;
33403;SDS011;19751;40.274;18.268;2023-09-19T08:26:15;19.92;;;4.95;;
33403;SDS011;19751;40.274;18.268;2023-09-19T08:28:40;17.88;;;5.03;;
33403;SDS011;19751;40.274;18.268;2023-09-19T08:31:06;15.02;;;4.38;;
33403;SDS011;19751;40.274;18.268;2023-09-19T08:33:34;14.57;;;4.68;;
33403;SDS011;19751;40.274;18.268;2023-09-19T08:36:01;16.27;;;4.78;;
33403;SDS011;19751;40.274;18.268;2023-09-19T08:38:30;18.15;;;4.82;;
33403;SDS011;19751;40.274;18.268;2023-09-19T08:40:58;16.27;;;6.13;;
33403;SDS011;19751;40.274;18.268;2023-09-19T08:43:29;20.38;;;4.75;;
33403;SDS011;19751;40.274;18.268;2023-09-19T08:45:58;13.35;;;3.72;;
33403;SDS011;19751;40.274;18.268;2023-09-19T08:48:33;14.60;;;4.43;;
33403;SDS011;19751;40.274;18.268;2023-09-19T08:51:03;11.77;;;3.83;;
33403;SDS011;19751;40.274;18.268;2023-09-19T08:55:59;15.10;;;4.43;;
33403;SDS011;19751;40.274;18.268;2023-09-19T08:58:31;15.05;;;4.43;;
33403;SDS011;19751;40.274;18.268;2023-09-19T09:01:00;20.92;;;5.28;;
33403;SDS011;19751;40.274;18.268;2023-09-19T09:03:26;10.35;;;4.68;;
33403;SDS011;19751;40.274;18.268;2023-09-19T09:05:57;8.63;;;4.03;;
33403;SDS011;19751;40.274;18.268;2023-09-19T09:08:23;30.02;;;5.97;;
33403;SDS011;19751;40.274;18.268;2023-09-19T09:10:50;15.88;;;3.67;;
33403;SDS011;19751;40.274;18.268;2023-09-19T09:13:16;14.40;;;4.97;;
33403;SDS011;19751;40.274;18.268;2023-09-19T09:15:43;22.02;;;4.78;;
33403;SDS011;19751;40.274;18.268;2023-09-19T09:18:10;12.32;;;3.50;;
33403;SDS011;19751;40.274;18.268;2023-09-19T09:20:35;20.80;;;4.72;;
33403;SDS011;19751;40.274;18.268;2023-09-19T09:23:01;20.48;;;5.15;;
33403;SDS011;19751;40.274;18.268;2023-09-19T09:28:27;20.63;;;4.38;;
33403;SDS011;19751;40.274;18.268;2023-09-19T09:30:54;9.75;;;3.92;;
33403;SDS011;19751;40.274;18.268;2023-09-19T09:33:21;12.20;;;3.67;;
33403;SDS011;19751;40.274;18.268;2023-09-19T09:38:20;16.73;;;4.22;;
33403;SDS011;19751;40.274;18.268;2023-09-19T09:40:51;12.52;;;4.78;;
33403;SDS011;19751;40.274;18.268;2023-09-19T09:43:27;12.80;;;4.22;;
33403;SDS011;19751;40.274;18.268;2023-09-19T09:48:45;18.33;;;5.65;;
33403;SDS011;19751;40.274;18.268;2023-09-19T09:51:29;11.45;;;5.60;;
33403;SDS011;19751;40.274;18.268;2023-09-19T09:54:09;23.27;;;5.78;;
33403;SDS011;19751;40.274;18.268;2023-09-19T09:56:58;14.07;;;5.20;;
33403;SDS011;19751;40.274;18.268;2023-09-19T10:02:41;15.40;;;4.82;;
33403;SDS011;19751;40.274;18.268;2023-09-19T10:05:25;15.07;;;5.28;;
33403;SDS011;19751;40.274;18.268;2023-09-19T10:07:54;14.85;;;4.85;;
33403;SDS011;19751;40.274;18.268;2023-09-19T10:13:08;19.38;;;5.15;;
33403;SDS011;19751;40.274;18.268;2023-09-19T10:15:39;18.45;;;4.75;;
33403;SDS011;19751;40.274;18.268;2023-09-19T10:18:12;29.47;;;7.23;;
33403;SDS011;19751;40.274;18.268;2023-09-19T10:20:44;19.00;;;4.25;;
33403;SDS011;19751;40.274;18.268;2023-09-19T10:23:11;14.68;;;5.30;;
33403;SDS011;19751;40.274;18.268;2023-09-19T10:25:42;12.52;;;4.05;;
33403;SDS011;19751;40.274;18.268;2023-09-19T10:28:12;24.92;;;5.97;;
33403;SDS011;19751;40.274;18.268;2023-09-19T10:30:42;25.70;;;6.30;;
33403;SDS011;19751;40.274;18.268;2023-09-19T10:33:22;15.65;;;5.00;;
33403;SDS011;19751;40.274;18.268;2023-09-19T10:35:51;20.42;;;5.95;;
33403;SDS011;19751;40.274;18.268;2023-09-19T10:38:23;16.90;;;6.55;;
33403;SDS011;19751;40.274;18.268;2023-09-19T10:40:52;27.60;;;7.47;;
33403;SDS011;19751;40.274;18.268;2023-09-19T10:43:26;15.85;;;5.60;;
33403;SDS011;19751;40.274;18.268;2023-09-19T10:46:01;15.10;;;5.65;;
33403;SDS011;19751;40.274;18.268;2023-09-19T10:48:32;21.92;;;6.90;;
33403;SDS011;19751;40.274;18.268;2023-09-19T10:53:29;15.05;;;6.15;;
33403;SDS011;19751;40.274;18.268;2023-09-19T10:56:09;18.55;;;5.78;;
33403;SDS011;19751;40.274;18.268;2023-09-19T10:58:42;23.33;;;5.90;;
33403;SDS011;19751;40.274;18.268;2023-09-19T11:01:10;19.90;;;5.40;;
33403;SDS011;19751;40.274;18.268;2023-09-19T11:03:39;23.80;;;5.57;;
33403;SDS011;19751;40.274;18.268;2023-09-19T11:06:18;16.35;;;4.85;;
33403;SDS011;19751;40.274;18.268;2023-09-19T11:08:57;24.73;;;5.45;;
33403;SDS011;19751;40.274;18.268;2023-09-19T11:11:41;17.58;;;5.82;;
33403;SDS011;19751;40.274;18.268;2023-09-19T11:30:34;18.17;;;4.60;;
33403;SDS011;19751;40.274;18.268;2023-09-19T11:36:09;15.82;;;5.57;;
33403;SDS011;19751;40.274;18.268;2023-09-19T11:43:46;19.15;;;4.60;;
33403;SDS011;19751;40.274;18.268;2023-09-19T11:46:20;19.77;;;5.75;;
33403;SDS011;19751;40.274;18.268;2023-09-19T11:48:48;20.38;;;4.50;;
33403;SDS011;19751;40.274;18.268;2023-09-19T11:51:16;13.20;;;5.95;;
33403;SDS011;19751;40.274;18.268;2023-09-19T11:53:52;12.45;;;4.85;;
33403;SDS011;19751;40.274;18.268;2023-09-19T11:56:28;15.63;;;4.90;;
33403;SDS011;19751;40.274;18.268;2023-09-19T11:58:54;9.68;;;3.75;;
33403;SDS011;19751;40.274;18.268;2023-09-19T12:01:25;13.30;;;4.47;;
33403;SDS011;19751;40.274;18.268;2023-09-19T12:03:55;12.40;;;3.65;;
33403;SDS011;19751;40.274;18.268;2023-09-19T12:06:23;11.30;;;4.05;;
33403;SDS011;19751;40.274;18.268;2023-09-19T12:08:49;21.40;;;5.00;;
33403;SDS011;19751;40.274;18.268;2023-09-19T12:11:16;18.23;;;5.00;;
33403;SDS011;19751;40.274;18.268;2023-09-19T12:13:46;16.05;;;4.57;;
33403;SDS011;19751;40.274;18.268;2023-09-19T12:18:40;15.90;;;5.05;;
33403;SDS011;19751;40.274;18.268;2023-09-19T12:21:20;21.67;;;3.85;;
33403;SDS011;19751;40.274;18.268;2023-09-19T12:26:25;18.73;;;4.20;;
33403;SDS011;19751;40.274;18.268;2023-09-19T12:28:54;15.60;;;4.50;;
33403;SDS011;19751;40.274;18.268;2023-09-19T12:31:20;15.15;;;4.90;;
33403;SDS011;19751;40.274;18.268;2023-09-19T12:33:52;19.63;;;5.38;;
33403;SDS011;19751;40.274;18.268;2023-09-19T12:36:22;14.50;;;3.67;;
33403;SDS011;19751;40.274;18.268;2023-09-19T12:38:56;16.52;;;3.88;;
33403;SDS011;19751;40.274;18.268;2023-09-19T12:41:25;16.85;;;4.07;;
33403;SDS011;19751;40.274;18.268;2023-09-19T12:43:52;14.95;;;4.03;;
33403;SDS011;19751;40.274;18.268;2023-09-19T12:46:22;12.73;;;3.67;;
33403;SDS011;19751;40.274;18.268;2023-09-19T12:51:45;12.18;;;3.95;;
33403;SDS011;19751;40.274;18.268;2023-09-19T12:54:12;16.85;;;4.00;;
33403;SDS011;19751;40.274;18.268;2023-09-19T12:56:42;20.10;;;5.60;;
33403;SDS011;19751;40.274;18.268;2023-09-19T12:59:15;9.00;;;3.42;;
33403;SDS011;19751;40.274;18.268;2023-09-19T13:01:42;16.80;;;4.45;;
33403;SDS011;19751;40.274;18.268;2023-09-19T13:04:20;11.32;;;4.70;;
33403;SDS011;19751;40.274;18.268;2023-09-19T13:09:25;9.60;;;3.55;;
33403;SDS011;19751;40.274;18.268;2023-09-19T13:15:09;10.93;;;3.58;;
33403;SDS011;19751;40.274;18.268;2023-09-19T13:17:47;19.52;;;3.80;;
33403;SDS011;19751;40.274;18.268;2023-09-19T13:20:23;14.90;;;4.20;;
33403;SDS011;19751;40.274;18.268;2023-09-19T13:22:53;13.77;;;3.75;;
33403;SDS011;19751;40.274;18.268;2023-09-19T13:25:19;14.68;;;4.57;;
33403;SDS011;19751;40.274;18.268;2023-09-19T13:27:50;16.33;;;3.83;;
33403;SDS011;19751;40.274;18.268;2023-09-19T13:30:19;19.35;;;5.00;;
33403;SDS011;19751;40.274;18.268;2023-09-19T13:32:46;13.80;;;4.30;;
33403;SDS011;19751;40.274;18.268;2023-09-19T13:35:15;12.25;;;4.45;;
33403;SDS011;19751;40.274;18.268;2023-09-19T13:37:41;13.50;;;4.45;;
33403;SDS011;19751;40.274;18.268;2023-09-19T13:40:08;13.77;;;4.45;;
33403;SDS011;19751;40.274;18.268;2023-09-19T13:42:35;15.60;;;4.28;;
33403;SDS011;19751;40.274;18.268;2023-09-19T13:45:02;16.13;;;4.05;;
33403;SDS011;19751;40.274;18.268;2023-09-19T13:47:31;10.38;;;4.32;;
33403;SDS011;19751;40.274;18.268;2023-09-19T13:49:58;17.33;;;4.47;;
33403;SDS011;19751;40.274;18.268;2023-09-19T13:52:26;10.75;;;3.53;;
33403;SDS011;19751;40.274;18.268;2023-09-19T13:54:56;18.45;;;4.65;;
33403;SDS011;19751;40.274;18.268;2023-09-19T13:57:25;22.10;;;5.25;;
33403;SDS011;19751;40.274;18.268;2023-09-19T13:59:51;21.00;;;4.35;;
33403;SDS011;19751;40.274;18.268;2023-09-19T14:02:19;19.58;;;5.80;;
33403;SDS011;19751;40.274;18.268;2023-09-19T14:04:44;19.70;;;6.70;;
33403;SDS011;19751;40.274;18.268;2023-09-19T14:07:10;19.70;;;5.22;;
33403;SDS011;19751;40.274;18.268;2023-09-19T14:09:36;28.13;;;6.90;;
33403;SDS011;19751;40.274;18.268;2023-09-19T14:12:02;19.92;;;5.68;;
33403;SDS011;19751;40.274;18.268;2023-09-19T14:14:28;19.60;;;5.57;;
33403;SDS011;19751;40.274;18.268;2023-09-19T14:16:53;18.30;;;5.07;;
33403;SDS011;19751;40.274;18.268;2023-09-19T14:19:20;13.43;;;4.78;;
33403;SDS011;19751;40.274;18.268;2023-09-19T14:21:45;15.57;;;4.38;;
33403;SDS011;19751;40.274;18.268;2023-09-19T14:24:11;18.63;;;4.93;;
33403;SDS011;19751;40.274;18.268;2023-09-19T14:26:41;13.27;;;4.95;;
33403;SDS011;19751;40.274;18.268;2023-09-19T14:29:07;17.00;;;4.72;;
33403;SDS011;19751;40.274;18.268;2023-09-19T14:31:33;21.48;;;4.95;;
33403;SDS011;19751;40.274;18.268;2023-09-19T14:33:59;13.90;;;5.88;;
33403;SDS011;19751;40.274;18.268;2023-09-19T14:36:25;19.20;;;5.40;;
33403;SDS011;19751;40.274;18.268;2023-09-19T14:38:55;19.85;;;5.35;;
33403;SDS011;19751;40.274;18.268;2023-09-19T14:41:22;23.77;;;5.35;;
33403;SDS011;19751;40.274;18.268;2023-09-19T14:43:48;14.05;;;3.92;;
33403;SDS011;19751;40.274;18.268;2023-09-19T14:46:14;13.45;;;5.93;;
33403;SDS011;19751;40.274;18.268;2023-09-19T14:48:41;19.38;;;4.72;;
33403;SDS011;19751;40.274;18.268;2023-09-19T14:51:07;16.73;;;4.95;;
33403;SDS011;19751;40.274;18.268;2023-09-19T14:53:37;21.30;;;4.63;;
33403;SDS011;19751;40.274;18.268;2023-09-19T14:56:03;17.23;;;3.70;;
33403;SDS011;19751;40.274;18.268;2023-09-19T14:58:30;13.00;;;4.32;;
33403;SDS011;19751;40.274;18.268;2023-09-19T15:01:03;12.27;;;4.38;;
33403;SDS011;19751;40.274;18.268;2023-09-19T15:03:36;14.65;;;4.78;;
33403;SDS011;19751;40.274;18.268;2023-09-19T15:06:02;15.35;;;4.18;;
33403;SDS011;19751;40.274;18.268;2023-09-19T15:08:35;21.98;;;4.78;;
33403;SDS011;19751;40.274;18.268;2023-09-19T15:11:07;17.58;;;5.00;;
33403;SDS011;19751;40.274;18.268;2023-09-19T15:13:33;13.57;;;4.85;;
33403;SDS011;19751;40.274;18.268;2023-09-19T15:16:08;16.35;;;5.63;;
33403;SDS011;19751;40.274;18.268;2023-09-19T15:18:38;16.67;;;4.82;;
33403;SDS011;19751;40.274;18.268;2023-09-19T15:21:06;17.85;;;5.78;;
33403;SDS011;19751;40.274;18.268;2023-09-19T15:23:36;20.23;;;7.07;;
33403;SDS011;19751;40.274;18.268;2023-09-19T15:26:03;21.63;;;8.15;;
33403;SDS011;19751;40.274;18.268;2023-09-19T15:28:30;14.27;;;8.23;;
33403;SDS011;19751;40.274;18.268;2023-09-19T15:31:00;22.60;;;6.45;;
33403;SDS011;19751;40.274;18.268;2023-09-19T15:33:26;22.52;;;7.38;;
33403;SDS011;19751;40.274;18.268;2023-09-19T15:41:28;10.45;;;4.63;;
33403;SDS011;19751;40.274;18.268;2023-09-19T15:43:56;14.77;;;4.68;;
33403;SDS011;19751;40.274;18.268;2023-09-19T15:46:23;12.10;;;4.45;;
33403;SDS011;19751;40.274;18.268;2023-09-19T15:48:48;21.98;;;4.90;;
33403;SDS011;19751;40.274;18.268;2023-09-19T15:51:15;15.93;;;4.63;;